createdAt,value
2018-06-28T07:24:13.543Z,25.00
2018-06-28T07:26:41.810Z,24.90
2018-06-28T07:29:10.024Z,25.30
2018-06-28T07:31:38.366Z,25.50
2018-06-28T07:34:06.716Z,25.50
2018-06-28T07:36:35.039Z,25.60
2018-06-28T07:39:03.333Z,25.80
2018-06-28T07:41:31.589Z,25.80
2018-06-28T07:43:59.852Z,25.80
2018-06-28T07:46:28.133Z,26.20
2018-06-28T07:48:56.660Z,26.30
2018-06-28T07:51:24.978Z,26.50
2018-06-28T07:53:53.284Z,26.80
2018-06-28T07:56:21.576Z,26.80
2018-06-28T07:58:49.887Z,27.00
2018-06-28T08:01:18.099Z,27.00
2018-06-28T08:03:46.383Z,27.30
2018-06-28T08:06:14.659Z,27.30
2018-06-28T08:08:42.913Z,27.20
2018-06-28T08:11:11.239Z,27.20
2018-06-28T08:13:39.495Z,27.20
2018-06-28T08:16:07.789Z,27.10
2018-06-28T08:18:36.022Z,27.00
2018-06-28T08:21:04.321Z,27.10
2018-06-28T08:23:32.533Z,27.50
2018-06-28T08:26:01.050Z,27.50
2018-06-28T08:28:29.767Z,27.70
2018-06-28T08:30:58.082Z,27.90
2018-06-28T08:33:26.306Z,28.20
2018-06-28T08:35:54.671Z,28.40
2018-06-28T08:38:22.989Z,28.40
2018-06-28T08:40:51.199Z,28.30
2018-06-28T08:43:19.462Z,28.10
2018-06-28T08:45:47.781Z,28.40
2018-06-28T08:48:16.037Z,28.50
2018-06-28T08:50:44.370Z,28.90
2018-06-28T08:53:12.697Z,29.00
2018-06-28T08:55:41.574Z,28.90
2018-06-28T08:58:09.869Z,29.10
2018-06-28T09:00:38.082Z,29.20
2018-06-28T09:03:06.401Z,29.40
2018-06-28T09:05:34.674Z,29.20
2018-06-28T09:08:02.929Z,29.40
2018-06-28T09:10:31.188Z,29.60
2018-06-28T09:15:27.935Z,29.90
2018-06-28T09:17:56.224Z,29.90
2018-06-28T09:20:24.783Z,29.90
2018-06-28T09:25:21.036Z,30.40
2018-06-28T09:27:49.273Z,30.40
2018-06-28T09:30:17.499Z,30.40
2018-06-28T09:32:45.905Z,30.40
2018-06-28T09:35:14.133Z,30.30
2018-06-28T09:37:42.374Z,30.50
2018-06-28T09:40:10.679Z,30.50
2018-06-28T09:42:38.910Z,30.50
2018-06-28T09:45:07.487Z,30.80
2018-06-28T09:47:35.739Z,30.70
2018-06-28T09:50:04.239Z,31.10
2018-06-28T09:52:32.506Z,31.10
2018-06-28T09:55:00.889Z,31.10
2018-06-28T09:57:29.101Z,31.20
2018-06-28T09:59:57.487Z,31.20
2018-06-28T10:02:25.894Z,31.30
2018-06-28T10:07:22.260Z,31.40
2018-06-28T10:09:50.568Z,31.40
2018-06-28T10:12:18.871Z,31.40
2018-06-28T10:14:47.147Z,31.20
2018-06-28T10:17:15.335Z,31.10
2018-06-28T10:19:43.610Z,31.10
2018-06-28T10:22:11.874Z,31.20
2018-06-28T10:24:40.225Z,31.30
2018-06-28T10:27:08.470Z,31.30
2018-06-28T10:29:36.735Z,31.60
2018-06-28T10:32:05.053Z,31.40
2018-06-28T10:34:33.453Z,31.70
2018-06-28T10:37:01.696Z,31.70
2018-06-28T10:39:29.934Z,31.60
2018-06-28T10:41:58.507Z,31.70
2018-06-28T10:44:26.729Z,31.70
2018-06-28T10:46:55.020Z,31.60
2018-06-28T10:49:23.389Z,31.70
2018-06-28T10:51:51.674Z,31.60
2018-06-28T10:54:19.933Z,31.50
2018-06-28T10:56:48.239Z,31.60
2018-06-28T10:59:16.502Z,31.50
2018-06-28T11:01:44.888Z,31.50
2018-06-28T11:04:13.146Z,31.50
2018-06-28T11:06:41.550Z,31.50
2018-06-28T11:09:10.899Z,31.20
2018-06-28T11:11:40.013Z,31.20
2018-06-28T11:14:08.342Z,31.20
2018-06-28T11:16:36.641Z,31.10
2018-06-28T11:19:04.926Z,30.90
2018-06-28T11:21:33.349Z,31.10
2018-06-28T11:24:01.711Z,30.90
2018-06-28T11:28:58.096Z,31.00
2018-06-28T11:31:26.306Z,31.10
2018-06-28T11:33:54.539Z,31.20
2018-06-28T11:36:22.987Z,31.30
2018-06-28T11:41:11.532Z,31.30
2018-06-28T11:43:39.798Z,31.30
2018-06-28T11:46:07.997Z,31.10
2018-06-28T11:48:36.232Z,31.10
2018-06-28T11:51:04.550Z,31.00
2018-06-28T11:53:32.760Z,31.00
2018-06-28T11:56:00.987Z,30.90
2018-06-28T11:58:29.249Z,30.70
2018-06-28T12:00:57.525Z,30.70
2018-06-28T12:03:25.792Z,30.50
2018-06-28T12:05:54.035Z,30.40
2018-06-28T12:08:22.282Z,30.40
2018-06-28T12:10:50.573Z,30.50
2018-06-28T12:13:18.849Z,30.50
2018-06-28T12:15:47.143Z,30.20
2018-06-28T12:20:43.562Z,30.20
2018-06-28T12:23:11.836Z,30.30
2018-06-28T12:25:40.449Z,30.30
2018-06-28T12:28:08.863Z,30.30
2018-06-28T12:33:05.446Z,30.10
2018-06-28T12:35:33.694Z,30.00
2018-06-28T12:38:01.971Z,30.00
2018-06-28T12:40:30.326Z,30.10
2018-06-28T12:42:58.601Z,30.00
2018-06-28T12:45:26.832Z,30.00
2018-06-28T12:48:04.221Z,30.00
2018-06-28T12:50:32.533Z,30.00
2018-06-28T12:53:02.072Z,29.90
2018-06-28T12:56:34.875Z,29.90
2018-06-28T12:59:07.331Z,29.90
2018-06-28T13:01:36.035Z,29.90
2018-06-28T13:04:04.341Z,30.00
2018-06-28T13:06:32.662Z,30.10
2018-06-28T13:09:02.036Z,30.00
2018-06-28T13:11:30.326Z,29.90
2018-06-28T13:13:58.626Z,29.90
2018-06-28T13:18:55.968Z,29.70
2018-06-28T13:21:24.209Z,29.70
2018-06-28T13:23:53.349Z,29.70
2018-06-28T13:26:21.630Z,29.80
2018-06-28T13:28:49.882Z,29.60
2018-06-28T13:31:18.184Z,29.70
2018-06-28T13:33:46.561Z,29.90
2018-06-28T13:36:14.723Z,29.90
2018-06-28T13:38:42.950Z,29.80
2018-06-28T13:41:11.298Z,29.70
2018-06-28T13:43:39.490Z,29.70
2018-06-28T13:46:07.824Z,29.70
2018-06-28T13:51:04.229Z,29.50
2018-06-28T13:53:32.642Z,29.40
2018-06-28T13:56:00.906Z,29.50
2018-06-28T13:58:29.201Z,29.40
2018-06-28T14:03:27.426Z,29.20
2018-06-28T14:05:55.725Z,29.10
2018-06-28T14:08:24.492Z,29.10
2018-06-28T14:10:52.785Z,29.00
2018-06-28T14:13:21.101Z,29.00
2018-06-28T14:15:49.309Z,29.00
2018-06-28T14:18:17.627Z,29.00
2018-06-28T14:25:42.638Z,28.90
2018-06-28T14:28:10.914Z,28.90
2018-06-28T14:30:39.178Z,29.00
2018-06-28T14:33:07.450Z,28.90
2018-06-28T14:35:35.763Z,28.90
2018-06-28T14:38:04.014Z,28.90
2018-06-28T14:40:32.212Z,28.80
2018-06-28T14:43:00.504Z,28.80
2018-06-28T14:45:28.874Z,28.90
2018-06-28T14:47:57.214Z,28.90
2018-06-28T14:50:25.456Z,28.70
2018-06-28T14:55:21.885Z,28.50
2018-06-28T14:57:50.123Z,28.60
2018-06-28T15:00:18.527Z,28.70
2018-06-28T15:02:46.860Z,28.60
2018-06-28T15:05:15.162Z,28.50
2018-06-28T15:07:43.856Z,28.40
2018-06-28T15:10:12.109Z,28.40
2018-06-28T15:12:40.388Z,28.30
2018-06-28T15:15:08.602Z,28.20
2018-06-28T15:17:36.933Z,28.20
2018-06-28T15:22:33.689Z,28.30
2018-06-28T15:25:01.969Z,28.30
2018-06-28T15:27:30.200Z,28.20
2018-06-28T15:29:58.543Z,28.30
2018-06-28T15:32:26.830Z,28.20
2018-06-28T15:34:55.429Z,28.10
2018-06-28T15:37:23.822Z,28.10
2018-06-28T15:39:52.080Z,28.10
2018-06-28T15:42:20.357Z,28.00
2018-06-28T15:44:48.572Z,28.10
2018-06-28T15:47:16.838Z,28.00
2018-06-28T15:49:45.148Z,27.90
2018-06-28T15:52:13.765Z,27.90
2018-06-28T15:54:42.077Z,27.80
2018-06-28T15:57:10.323Z,27.90
2018-06-28T15:59:38.805Z,27.90
2018-06-28T16:02:07.025Z,27.80
2018-06-28T16:04:35.298Z,27.80
2018-06-28T16:07:03.567Z,27.80
2018-06-28T16:09:31.847Z,27.70
2018-06-28T16:12:00.302Z,27.70
2018-06-28T16:14:28.546Z,27.60
2018-06-28T16:16:56.748Z,27.50
2018-06-28T16:19:24.974Z,27.50
2018-06-28T16:21:53.609Z,27.40
2018-06-28T16:24:21.915Z,27.30
2018-06-28T16:29:18.513Z,27.20
2018-06-28T16:31:46.766Z,27.20
2018-06-28T16:34:15.036Z,27.20
2018-06-28T16:36:43.340Z,27.20
2018-06-28T16:39:11.566Z,27.20
2018-06-28T16:41:39.835Z,27.10
2018-06-28T16:44:08.197Z,27.10
2018-06-28T16:46:36.479Z,27.00
2018-06-28T16:49:04.775Z,26.90
2018-06-28T16:51:33.158Z,26.90
2018-06-28T16:54:01.466Z,26.70
2018-06-28T16:56:29.732Z,26.70
2018-06-28T16:58:58.070Z,26.70
2018-06-28T17:01:26.617Z,26.80
2018-06-28T17:03:54.936Z,26.70
2018-06-28T17:06:23.481Z,26.50
2018-06-28T17:08:51.797Z,26.50
2018-06-28T17:11:20.023Z,26.50
2018-06-28T17:13:48.643Z,26.30
2018-06-28T17:16:16.911Z,26.20
2018-06-28T17:18:45.171Z,26.30
2018-06-28T17:21:13.481Z,26.30
2018-06-28T17:23:41.759Z,26.20
2018-06-28T17:26:10.023Z,26.20
2018-06-28T17:28:38.317Z,26.20
2018-06-28T17:31:06.784Z,26.20
2018-06-28T17:33:35.012Z,26.20
2018-06-28T17:36:03.602Z,26.10
2018-06-28T17:38:31.825Z,26.00
2018-06-28T17:41:00.053Z,25.90
2018-06-28T17:45:56.333Z,25.90
2018-06-28T17:50:52.850Z,25.70
2018-06-28T17:53:21.069Z,25.70
2018-06-28T17:55:49.326Z,25.60
2018-06-28T17:58:17.634Z,25.50
2018-06-28T18:00:45.907Z,25.50
2018-06-28T18:03:14.186Z,25.40
2018-06-28T18:05:42.414Z,25.40
2018-06-28T18:08:10.629Z,25.30
2018-06-28T18:13:07.202Z,25.20
2018-06-28T18:18:03.499Z,25.00
2018-06-28T18:20:31.809Z,25.00
2018-06-28T18:25:28.101Z,25.00
2018-06-28T18:30:24.342Z,24.80
2018-06-28T18:35:20.985Z,24.80
2018-06-28T18:37:49.427Z,24.80
2018-06-28T18:40:17.998Z,24.70
2018-06-28T18:42:46.402Z,24.60
2018-06-28T18:45:14.720Z,24.50
2018-06-28T18:47:43.015Z,24.40
2018-06-28T18:50:11.574Z,24.40
2018-06-28T18:52:39.866Z,24.30
2018-06-28T18:55:08.450Z,24.30
2018-06-28T18:57:36.899Z,24.20
2018-06-28T19:00:05.700Z,24.20
2018-06-28T19:05:02.141Z,24.00
2018-06-28T19:10:04.464Z,23.90
2018-06-28T19:17:34.724Z,23.80
2018-06-28T19:20:03.063Z,23.80
2018-06-28T19:22:37.126Z,23.70
2018-06-28T19:25:06.724Z,23.60
2018-06-28T19:30:08.855Z,23.50
2018-06-28T19:32:37.205Z,23.40
2018-06-28T19:35:05.623Z,23.30
2018-06-28T19:40:13.994Z,23.20
2018-06-28T19:42:47.746Z,23.10
2018-06-28T19:45:16.028Z,23.10
2018-06-28T19:47:44.474Z,23.00
2018-06-28T19:50:18.114Z,23.10
2018-06-28T19:52:52.722Z,22.90
2018-06-28T20:00:22.525Z,22.70
2018-06-28T20:02:56.083Z,22.70
2018-06-28T20:05:24.993Z,22.70
2018-06-28T20:07:53.552Z,22.50
2018-06-28T20:10:22.054Z,22.50
2018-06-28T20:15:40.843Z,22.30
2018-06-28T20:18:14.449Z,22.30
2018-06-28T20:20:43.978Z,22.20
2018-06-28T20:23:12.301Z,22.10
2018-06-28T20:25:41.005Z,22.10
2018-06-28T20:28:14.557Z,22.10
2018-06-28T20:33:22.042Z,22.00
2018-06-28T20:40:46.930Z,21.90
2018-06-28T20:45:43.437Z,21.80
2018-06-28T20:48:11.953Z,21.70
2018-06-28T20:50:40.306Z,21.70
2018-06-28T20:53:08.668Z,21.70
2018-06-28T20:55:37.069Z,21.60
2018-06-28T20:58:06.250Z,21.50
2018-06-28T21:00:34.552Z,21.50
2018-06-28T21:03:02.898Z,21.50
2018-06-28T21:05:31.219Z,21.30
2018-06-28T21:08:00.014Z,21.30
2018-06-28T21:10:28.337Z,21.30
2018-06-28T21:12:56.694Z,21.30
2018-06-28T21:15:24.948Z,21.20
2018-06-28T21:17:53.387Z,21.20
2018-06-28T21:20:21.766Z,21.20
2018-06-28T21:22:50.066Z,21.10
2018-06-28T21:27:46.370Z,21.10
2018-06-28T21:30:14.721Z,21.10
2018-06-28T21:35:11.676Z,21.10
2018-06-28T21:37:40.171Z,21.10
2018-06-28T21:40:08.545Z,21.10
2018-06-28T21:42:36.826Z,21.00
2018-06-28T21:45:05.111Z,21.00
2018-06-28T21:47:33.398Z,20.90
2018-06-28T21:50:01.679Z,20.90
2018-06-28T21:52:30.033Z,20.90
2018-06-28T21:57:26.380Z,20.80
2018-06-28T21:59:54.663Z,20.80
2018-06-28T22:02:22.995Z,20.70
2018-06-28T22:04:51.222Z,20.80
2018-06-28T22:07:19.467Z,20.80
2018-06-28T22:09:47.706Z,20.60
2018-06-28T22:12:15.987Z,20.60
2018-06-28T22:14:44.257Z,20.60
2018-06-28T22:17:12.530Z,20.60
2018-06-28T22:19:40.796Z,20.50
2018-06-28T22:22:09.150Z,20.50
2018-06-28T22:24:37.738Z,20.50
2018-06-28T22:27:06.032Z,20.40
2018-06-28T22:29:34.245Z,20.40
2018-06-28T22:32:02.458Z,20.40
2018-06-28T22:34:30.816Z,20.30
2018-06-28T22:36:59.085Z,20.40
2018-06-28T22:39:27.378Z,20.30
2018-06-28T22:41:55.641Z,20.30
2018-06-28T22:44:23.921Z,20.20
2018-06-28T22:46:52.118Z,20.10
2018-06-28T22:49:20.741Z,20.10
2018-06-28T22:51:49.027Z,20.10
2018-06-28T22:54:17.356Z,20.10
2018-06-28T22:56:46.082Z,20.10
2018-06-28T22:59:14.333Z,20.00
2018-06-28T23:01:42.625Z,20.10
2018-06-28T23:04:11.213Z,19.90
2018-06-28T23:06:39.485Z,19.90
2018-06-28T23:09:08.957Z,19.90
2018-06-28T23:11:37.231Z,19.90
2018-06-28T23:14:05.543Z,19.80
2018-06-28T23:19:01.827Z,19.80
2018-06-28T23:21:30.191Z,19.80
2018-06-28T23:23:58.482Z,19.70
2018-06-28T23:26:27.275Z,19.70
2018-06-28T23:28:55.549Z,19.60
2018-06-28T23:31:23.848Z,19.60
2018-06-28T23:33:52.434Z,19.60
2018-06-28T23:38:51.515Z,19.60
2018-06-28T23:41:19.828Z,19.60
2018-06-28T23:43:48.150Z,19.50
2018-06-28T23:46:16.409Z,19.60
2018-06-28T23:48:45.083Z,19.40
2018-06-28T23:53:41.333Z,19.50
2018-06-28T23:56:09.557Z,19.50
2018-06-28T23:58:37.780Z,19.30
